Terminal Aerodrome Forecast
Issued by NWS Bismarck, ND

Home | Current Version | Previous Version | Text Only | Print | Product List | Glossary Off
Versions: 1 2 3 4 5 6 7 8 9 10 11 12 13 14 15 16

000
FTUS43 KBIS 181100
TAFBIS
TAF
KBIS 181129Z 1812/1912 12017G21KT P6SM BKN100 BKN200
     FM181500 13022G27KT P6SM BKN120 BKN200
     FM182000 14027G34KT P6SM SCT130 BKN200
     FM190100 11014KT P6SM VCSH BKN050 BKN080
     FM190600 29011KT P6SM SCT200=

USA.gov is the U.S. government's official web portal to all federal, state and local government web resources and services.